FMMIFMMS

Guest
Details From FMMI - Ivato
To FMMS - Sainte Marie
Flight Number -
Tags Generated
Created
Modified
Stats Distance 169 nm / 312 km
Max Altitude 0 ft / 0 m
Waypoints 2
Social Downloads 3
Likes 0
Share VATSIM

Download

Looking for another format? Having issues loading an existing format? Contact us
Advertisement - Login to hide

Notes

Generated

Route

FMMI FMMS

ID Type Via Altitude Latitude Longitude Leg Dist Tot Dist Heading (true) Name
O FMMI APT - 0 ft / 0 m -18.79479˚ 47.46427˚ - 0 nm - -
O FMMS APT - 0 ft / 0 m -17.09898˚ 49.81671˚ 168 nm 168 nm 53° / 52° -

Altitude Profile

Advertisement - Login to hide

Weather


0- 5 10 15 20 25 30 35+ Temperature / ° C

Clouds and Precipitation
Forecast for 2017-12-15 00:00 UTC. Updated 2 hours ago

Ground ~20,000 ft ~40,000 ft Winds

FMMI

Details ICAO FMMI (TNR)
Name IVATO
Region Comoros, Mayotte, Réunion and Madagascar
Timezone Indian/Antananarivo (UTC+3.0)
Stats Elevation 4,198 ft / 1,280 m (AMSL)
Location -18.796950° 47.478806°
Runways 1
Magnetic Variation 15.161° W

METAR

FMMI 142100Z 05001KT 9999 FEW017 SCT020 20/19 Q1020 NOSIG

Decode

TAF

TAF FMMI 141700Z 1418/1524 06007KT 9999 FEW007 SCT017CB BKN020 PROB30 TEMPO 1418/1501 4000 TSRA BECMG 1506/1509 16010KT TEMPO 1510/1524 4000 TSRA

Decode

Departure Runways

ID Width Length Bearing (true) Bearing (mag) Surface Threshold Offset Overrun Length
11 148 ft / 45 m 10,167 ft / 3,099 m 98.92° 114.08° Asphalt 0 ft / 0 m 90 ft / 27 m
29 148 ft / 45 m 10,167 ft / 3,099 m 278.91° 294.07° Asphalt 0 ft / 0 m 90 ft / 27 m

FMMS

Details ICAO FMMS (SMS)
Name SAINTE MARIE
Region Comoros, Mayotte, Réunion and Madagascar
Timezone Indian/Antananarivo (UTC+3.0)
Stats Elevation 7 ft / 2 m (AMSL)
Location -17.094260° 49.816153°
Runways 1
Magnetic Variation 13.692° W

METAR

Not found

TAF

TAF FMMS 141700Z 1418/1518 20008KT 9999 FEW007 SCT017CB BKN033 PROB40 TEMPO 1418/1510 4000 TSRA BECMG 1506/1509 06010KT PROB30 TEMPO 1514/1518 4000 TSRA

Decode

Destination Runways

ID Width Length Bearing (true) Bearing (mag) Surface Threshold Offset Overrun Length
01 98 ft / 30 m 3,468 ft / 1,057 m 353.60° 7.29° Asphalt 0 ft / 0 m 0 ft / 0 m
19 98 ft / 30 m 3,468 ft / 1,057 m 173.60° 187.29° Asphalt 290 ft / 88 m 100 ft / 30 m

Popular Alternatives